^^
Datos históricos de la estación: Murcia-Puente Tocinos
Diario Informe para Abril 7, 2019 Unidades:  Ambas    Ingés   Métrico
Diario Semanal Mensual Anual
  Máxima: Mínima: Promedio:
Temperatura: 89.4 °F /  31.9 °C 66 °F /  18.9 °C 74.8 °F /  23.8 °C
Punto de rocio: 67.5 °F /  19.7 °C 47.5 °F /  8.6 °C 60.3 °F /  15.7 °C
Humedad: 87% 25% 65%
Velocidad viento: 13mph /  20.9km/h - 5.9mph /  9.5km/h
Racha viento: 23mph /  37km/h - -
Viento- - SSE
Presión: 30 in /  1017.1 hPa 29.9 in /  1012.4 hPa -
Precipitación: 0 in /  0.0 mm    
 
 
Tabla de datos para Abril 7, 2019
Hora Temperatura Punto de rocio Presión Viento Velocidad viento Racha viento Humedad Intensidad lluvia(por hora) Nubes
00:04 71.4 °F /  21.9 °C 67.3 °F /  19.6 °C 30in /  1015.9hPa OSO 1.8mph /  2.9km/h 5mph /  8km/h 87% 0in /  0.0mm
00:09 71.4 °F /  21.9 °C 67.3 °F /  19.6 °C 30in /  1015.9hPa SO 1.9mph /  3.1km/h 5mph /  8km/h 87% 0in /  0.0mm
00:14 71.6 °F /  22 °C 67.5 °F /  19.7 °C 30in /  1015.9hPa Sur 2.4mph /  3.8km/h 5.2mph /  8.4km/h 87% 0in /  0.0mm
00:19 71.6 °F /  22 °C 67.3 °F /  19.6 °C 30in /  1015.9hPa Sur 2.5mph /  4km/h 7.4mph /  11.9km/h 86.5% 0in /  0.0mm
00:24 71.4 °F /  21.9 °C 67.1 °F /  19.5 °C 30in /  1015.7hPa Sur 3.6mph /  5.8km/h 7mph /  11.3km/h 86% 0in /  0.0mm
00:29 71.4 °F /  21.9 °C 66.9 °F /  19.4 °C 30in /  1015.7hPa Sur 3.7mph /  6km/h 7mph /  11.3km/h 86% 0in /  0.0mm
00:34 71.2 °F /  21.8 °C 66.9 °F /  19.4 °C 30in /  1015.7hPa Sur 4.3mph /  6.9km/h 7mph /  11.3km/h 86% 0in /  0.0mm
00:39 71.2 °F /  21.8 °C 66.7 °F /  19.3 °C 30in /  1015.5hPa Sur 4.3mph /  7km/h 6.9mph /  11.1km/h 86% 0in /  0.0mm
00:44 71.1 °F /  21.7 °C 66.7 °F /  19.3 °C 30in /  1015.5hPa SSO 4.7mph /  7.6km/h 8.1mph /  13km/h 86% 0in /  0.0mm
00:49 71.1 °F /  21.7 °C 66.7 °F /  19.3 °C 30in /  1015.5hPa SSO 4.8mph /  7.7km/h 8.1mph /  13km/h 86% 0in /  0.0mm
00:54 71.1 °F /  21.7 °C 66.7 °F /  19.3 °C 30in /  1015.5hPa SSO 5.2mph /  8.4km/h 8mph /  12.9km/h 86% 0in /  0.0mm
00:59 71.1 °F /  21.7 °C 66.7 °F /  19.3 °C 30in /  1015.5hPa SO 4.9mph /  7.9km/h 7mph /  11.3km/h 86% 0in /  0.0mm
01:04 71.1 °F /  21.7 °C 66.7 °F /  19.3 °C 30in /  1015.5hPa SO 3.6mph /  5.8km/h 6.2mph /  10km/h 86% 0in /  0.0mm
01:09 71.1 °F /  21.7 °C 66.7 °F /  19.3 °C 30in /  1015.2hPa SO 3.7mph /  6km/h 7.4mph /  11.9km/h 86% 0in /  0.0mm
01:14 71.1 °F /  21.7 °C 66.7 °F /  19.3 °C 30in /  1015.2hPa SO 4.3mph /  6.9km/h 7mph /  11.3km/h 86% 0in /  0.0mm
01:19 71.1 °F /  21.7 °C 66.7 °F /  19.3 °C 30in /  1015.2hPa SO 4.3mph /  7km/h 7.4mph /  11.9km/h 86% 0in /  0.0mm
01:24 71.2 °F /  21.8 °C 66.7 °F /  19.3 °C 30in /  1015.1hPa SO 4.7mph /  7.6km/h 7mph /  11.3km/h 86% 0in /  0.0mm
01:29 71.2 °F /  21.8 °C 66.7 °F /  19.3 °C 30in /  1015.1hPa SO 4.7mph /  7.6km/h 7.4mph /  11.9km/h 86% 0in /  0.0mm
01:34 71.1 °F /  21.7 °C 66.4 °F /  19.1 °C 30in /  1015.1hPa OSO 4.7mph /  7.6km/h 8.1mph /  13km/h 85.1% 0in /  0.0mm
01:39 71.1 °F /  21.7 °C 66.4 °F /  19.1 °C 30in /  1014.9hPa OSO 4.7mph /  7.6km/h 8.1mph /  13km/h 85% 0in /  0.0mm
01:44 70.9 °F /  21.6 °C 66 °F /  18.9 °C 30in /  1014.9hPa OSO 4.7mph /  7.6km/h 8.5mph /  13.7km/h 85% 0in /  0.0mm
01:49 70.7 °F /  21.5 °C 66 °F /  18.9 °C 30in /  1014.9hPa Oeste 4.7mph /  7.5km/h 9mph /  14.5km/h 85% 0in /  0.0mm
01:54 70.3 °F /  21.3 °C 65.7 °F /  18.7 °C 30in /  1014.8hPa OSO 4.3mph /  6.9km/h 6.9mph /  11.1km/h 85.1% 0in /  0.0mm
01:59 70.3 °F /  21.3 °C 66 °F /  18.9 °C 30in /  1014.8hPa OSO 4.2mph /  6.7km/h 7mph /  11.3km/h 86% 0in /  0.0mm
02:04 70.3 °F /  21.3 °C 66 °F /  18.9 °C 30in /  1014.8hPa OSO 3.6mph /  5.8km/h 5.8mph /  9.3km/h 86% 0in /  0.0mm
02:09 70.3 °F /  21.3 °C 66 °F /  18.9 °C 30in /  1014.8hPa OSO 3.5mph /  5.6km/h 6mph /  9.7km/h 86% 0in /  0.0mm
02:14 70.3 °F /  21.3 °C 66 °F /  18.9 °C 30in /  1014.8hPa SO 3.1mph /  5km/h 6mph /  9.7km/h 86% 0in /  0.0mm
02:19 70.3 °F /  21.3 °C 66 °F /  18.9 °C 30in /  1014.9hPa SO 3mph /  4.8km/h 5mph /  8km/h 86% 0in /  0.0mm
02:24 70.3 °F /  21.3 °C 66 °F /  18.9 °C 30in /  1014.9hPa SO 2.4mph /  3.9km/h 6.2mph /  10km/h 86% 0in /  0.0mm
02:29 70.3 °F /  21.3 °C 66 °F /  18.9 °C 30in /  1014.9hPa SO 2.7mph /  4.3km/h 6mph /  9.7km/h 86% 0in /  0.0mm
02:34 70.3 °F /  21.3 °C 66 °F /  18.9 °C 30in /  1014.9hPa SO 4mph /  6.4km/h 6mph /  9.7km/h 86% 0in /  0.0mm
02:39 70.5 °F /  21.4 °C 66 °F /  18.9 °C 30in /  1014.8hPa SO 3.9mph /  6.3km/h 6mph /  9.7km/h 86% 0in /  0.0mm
02:44 70.5 °F /  21.4 °C 66 °F /  18.9 °C 30in /  1014.8hPa SO 3.6mph /  5.8km/h 5.2mph /  8.4km/h 86% 0in /  0.0mm
02:49 70.5 °F /  21.4 °C 66 °F /  18.9 °C 30in /  1014.8hPa OSO 3.5mph /  5.6km/h 5mph /  8km/h 85.7% 0in /  0.0mm
02:54 70.3 °F /  21.3 °C 65.7 °F /  18.7 °C 30in /  1014.8hPa Sur 2.9mph /  4.7km/h 5mph /  8km/h 85% 0in /  0.0mm
02:59 70.2 °F /  21.2 °C 65.8 °F /  18.8 °C 30in /  1014.8hPa SSO 3mph /  4.9km/h 5.8mph /  9.3km/h 85.9% 0in /  0.0mm
03:04 70.2 °F /  21.2 °C 65.8 °F /  18.8 °C 30in /  1014.8hPa SSO 3.6mph /  5.8km/h 6mph /  9.7km/h 86% 0in /  0.0mm
03:09 70 °F /  21.1 °C 65.7 °F /  18.7 °C 30in /  1014.6hPa SSO 3.7mph /  5.9km/h 6mph /  9.7km/h 86% 0in /  0.0mm
03:14 70 °F /  21.1 °C 65.5 °F /  18.6 °C 30in /  1014.6hPa SSO 4mph /  6.4km/h 6.2mph /  10km/h 86% 0in /  0.0mm
03:19 69.8 °F /  21 °C 65.3 °F /  18.5 °C 30in /  1014.6hPa SO 4mph /  6.5km/h 6mph /  9.7km/h 86% 0in /  0.0mm
03:24 69.6 °F /  20.9 °C 65.3 °F /  18.5 °C 30in /  1014.6hPa SO 4mph /  6.5km/h 6.2mph /  10km/h 86% 0in /  0.0mm
03:29 69.6 °F /  20.9 °C 65.1 °F /  18.4 °C 30in /  1014.6hPa SO 4mph /  6.5km/h 6.2mph /  10km/h 86% 0in /  0.0mm
03:34 69.4 °F /  20.8 °C 65.1 °F /  18.4 °C 30in /  1014.6hPa SSO 4mph /  6.5km/h 9.2mph /  14.8km/h 86% 0in /  0.0mm
03:39 69.4 °F /  20.8 °C 65.1 °F /  18.4 °C 30in /  1014.3hPa SO 4.1mph /  6.6km/h 9mph /  14.5km/h 86% 0in /  0.0mm
03:44 69.3 °F /  20.7 °C 64.9 °F /  18.3 °C 30in /  1014.2hPa SO 4.7mph /  7.6km/h 7mph /  11.3km/h 86% 0in /  0.0mm
03:49 69.3 °F /  20.7 °C 64.9 °F /  18.3 °C 30in /  1014.2hPa OSO 4.5mph /  7.3km/h 6mph /  9.7km/h 86% 0in /  0.0mm
03:54 69.1 °F /  20.6 °C 64.8 °F /  18.2 °C 29.9in /  1014.1hPa SO 3.6mph /  5.8km/h 5mph /  8km/h 86% 0in /  0.0mm
03:59 69.1 °F /  20.6 °C 64.9 °F /  18.3 °C 29.9in /  1014.1hPa SO 3.5mph /  5.6km/h 5.9mph /  9.5km/h 86.9% 0in /  0.0mm
04:04 69.1 °F /  20.6 °C 64.9 °F /  18.3 °C 29.9in /  1014.1hPa SO 3.1mph /  5km/h 6mph /  9.7km/h 87% 0in /  0.0mm
04:09 68.9 °F /  20.5 °C 64.9 °F /  18.3 °C 29.9in /  1013.9hPa SSO 3.2mph /  5.1km/h 6.2mph /  10km/h 87% 0in /  0.0mm
04:14 68.7 °F /  20.4 °C 64.4 °F /  18 °C 29.9in /  1013.9hPa SO 3.6mph /  5.8km/h 6.2mph /  10km/h 86.1% 0in /  0.0mm
04:19 68.7 °F /  20.4 °C 64.4 °F /  18 °C 29.9in /  1013.9hPa SO 3.7mph /  5.9km/h 7.4mph /  11.9km/h 86% 0in /  0.0mm
04:24 68.7 °F /  20.4 °C 64 °F /  17.8 °C 29.9in /  1013.8hPa SO 4mph /  6.4km/h 8.5mph /  13.7km/h 85.3% 0in /  0.0mm
04:29 68.5 °F /  20.3 °C 63.9 °F /  17.7 °C 29.9in /  1013.8hPa SSO 4.1mph /  6.6km/h 9mph /  14.5km/h 85% 0in /  0.0mm
04:34 68.5 °F /  20.3 °C 63.9 °F /  17.7 °C 29.9in /  1013.8hPa SO 4.7mph /  7.6km/h 9mph /  14.5km/h 85% 0in /  0.0mm
04:39 68.5 °F /  20.3 °C 63.9 °F /  17.7 °C 29.9in /  1013.8hPa SO 4.6mph /  7.4km/h 8.1mph /  13km/h 85% 0in /  0.0mm
04:44 68.5 °F /  20.3 °C 63.5 °F /  17.5 °C 29.9in /  1013.8hPa SO 4mph /  6.5km/h 7mph /  11.3km/h 84.1% 0in /  0.0mm
04:49 68.5 °F /  20.3 °C 63.5 °F /  17.5 °C 29.9in /  1013.8hPa SO 4mph /  6.4km/h 7mph /  11.3km/h 84% 0in /  0.0mm
04:54 68.5 °F /  20.3 °C 63.5 °F /  17.5 °C 29.9in /  1013.6hPa SSO 3.6mph /  5.8km/h 5mph /  8km/h 84% 0in /  0.0mm
04:59 68.5 °F /  20.3 °C 63.5 °F /  17.5 °C 29.9in /  1013.6hPa SO 3.4mph /  5.4km/h 5mph /  8km/h 84% 0in /  0.0mm
05:04 68.5 °F /  20.3 °C 63.5 °F /  17.5 °C 29.9in /  1014.0hPa Oeste 2.4mph /  3.9km/h 5.9mph /  9.5km/h 84% 0in /  0.0mm
05:09 68.4 °F /  20.2 °C 63.3 °F /  17.4 °C 29.9in /  1014.0hPa Oeste 2.5mph /  4km/h 6mph /  9.7km/h 84% 0in /  0.0mm
05:14 68.4 °F /  20.2 °C 63.3 °F /  17.4 °C 29.9in /  1014.0hPa OSO 2.9mph /  4.7km/h 6.4mph /  10.3km/h 84% 0in /  0.0mm
05:19 67.8 °F /  19.9 °C 63 °F /  17.2 °C 29.9in /  1014.0hPa OSO 3mph /  4.8km/h 7.4mph /  11.9km/h 84% 0in /  0.0mm
05:24 67.6 °F /  19.8 °C 62.6 °F /  17 °C 29.9in /  1013.9hPa SO 3.6mph /  5.8km/h 9.2mph /  14.8km/h 84% 0in /  0.0mm
05:29 67.5 °F /  19.7 °C 62.4 °F /  16.9 °C 29.9in /  1013.8hPa SO 3.9mph /  6.2km/h 9mph /  14.5km/h 83.5% 0in /  0.0mm
05:34 67.5 °F /  19.7 °C 62.1 °F /  16.7 °C 29.9in /  1013.8hPa SO 5.2mph /  8.4km/h 8mph /  12.9km/h 83% 0in /  0.0mm
05:39 67.5 °F /  19.7 °C 62.1 °F /  16.7 °C 29.9in /  1013.5hPa SO 5mph /  8km/h 6mph /  9.7km/h 82.5% 0in /  0.0mm
05:44 67.6 °F /  19.8 °C 61.7 °F /  16.5 °C 29.9in /  1013.5hPa SO 3.6mph /  5.8km/h 6.9mph /  11.1km/h 81.5% 0in /  0.0mm
05:49 67.6 °F /  19.8 °C 61.5 °F /  16.4 °C 29.9in /  1013.6hPa SSO 3.7mph /  6km/h 7mph /  11.3km/h 80.9% 0in /  0.0mm
05:54 67.6 °F /  19.8 °C 61 °F /  16.1 °C 29.9in /  1013.6hPa SO 4.3mph /  6.9km/h 7.4mph /  11.9km/h 79.6% 0in /  0.0mm
05:59 67.6 °F /  19.8 °C 60.6 °F /  15.9 °C 29.9in /  1013.6hPa SO 4.5mph /  7.2km/h 9.2mph /  14.8km/h 78.4% 0in /  0.0mm
06:04 67.8 °F /  19.9 °C 60.6 °F /  15.9 °C 29.9in /  1013.6hPa SO 5.2mph /  8.4km/h 9mph /  14.5km/h 78% 0in /  0.0mm
06:09 67.8 °F /  19.9 °C 60.6 °F /  15.9 °C 29.9in /  1013.5hPa SO 5mph /  8.1km/h 8mph /  12.9km/h 78% 0in /  0.0mm
06:14 67.8 °F /  19.9 °C 60.6 °F /  15.9 °C 29.9in /  1013.5hPa SO 4.3mph /  6.9km/h 6.9mph /  11.1km/h 78% 0in /  0.0mm
06:19 67.8 °F /  19.9 °C 60.6 °F /  15.9 °C 29.9in /  1013.5hPa SO 4.2mph /  6.8km/h 7mph /  11.3km/h 78% 0in /  0.0mm
06:24 67.8 °F /  19.9 °C 60.6 °F /  15.9 °C 29.9in /  1013.5hPa OSO 3.6mph /  5.8km/h 7mph /  11.3km/h 78% 0in /  0.0mm
06:29 67.8 °F /  19.9 °C 60.6 °F /  15.9 °C 29.9in /  1013.5hPa SO 3.5mph /  5.6km/h 5mph /  8km/h 78% 0in /  0.0mm
06:34 67.6 °F /  19.8 °C 60.4 °F /  15.8 °C 29.9in /  1013.5hPa SSO 3.1mph /  5km/h 5mph /  8km/h 78% 0in /  0.0mm
06:39 67.6 °F /  19.8 °C 60.4 °F /  15.8 °C 29.9in /  1013.5hPa SSE 3.1mph /  5km/h 7.4mph /  11.9km/h 78% 0in /  0.0mm
06:44 67.3 °F /  19.6 °C 60.4 °F /  15.8 °C 29.9in /  1013.5hPa Sur 3.1mph /  5km/h 7mph /  11.3km/h 78.6% 0in /  0.0mm
06:49 66.9 °F /  19.4 °C 60.4 °F /  15.8 °C 29.9in /  1013.6hPa SO 3.3mph /  5.3km/h 7.4mph /  11.9km/h 79.9% 0in /  0.0mm
06:54 66.9 °F /  19.4 °C 60.6 °F /  15.9 °C 29.9in /  1013.6hPa SSO 4.3mph /  6.9km/h 7.4mph /  11.9km/h 80.2% 0in /  0.0mm
06:59 67.1 °F /  19.5 °C 60.8 °F /  16 °C 29.9in /  1013.6hPa SO 4.3mph /  6.9km/h 9.7mph /  15.6km/h 80% 0in /  0.0mm
07:04 67.3 °F /  19.6 °C 60.8 °F /  16 °C 29.9in /  1013.6hPa SO 4.3mph /  6.9km/h 10mph /  16.1km/h 79.9% 0in /  0.0mm
07:09 67.5 °F /  19.7 °C 60.6 °F /  15.9 °C 29.9in /  1013.5hPa SO 4.5mph /  7.2km/h 10mph /  16.1km/h 78.9% 0in /  0.0mm
07:14 67.5 °F /  19.7 °C 60.3 °F /  15.7 °C 29.9in /  1013.5hPa SO 5.2mph /  8.4km/h 10.7mph /  17.2km/h 77.4% 0in /  0.0mm
07:19 67.6 °F /  19.8 °C 59.9 °F /  15.5 °C 29.9in /  1013.5hPa SO 5mph /  8.1km/h 11mph /  17.7km/h 76.1% 0in /  0.0mm
07:24 67.6 °F /  19.8 °C 59.2 °F /  15.1 °C 29.9in /  1013.5hPa SO 4.3mph /  6.9km/h 6mph /  9.7km/h 74.4% 0in /  0.0mm
07:29 67.8 °F /  19.9 °C 59 °F /  15 °C 29.9in /  1013.5hPa SSO 4.2mph /  6.8km/h 6.9mph /  11.1km/h 73.6% 0in /  0.0mm
07:34 67.8 °F /  19.9 °C 59.4 °F /  15.2 °C 29.9in /  1013.6hPa SSE 3.6mph /  5.8km/h 7mph /  11.3km/h 74.4% 0in /  0.0mm
07:39 67.6 °F /  19.8 °C 59.7 °F /  15.4 °C 29.9in /  1013.6hPa Sur 3.7mph /  6km/h 8.1mph /  13km/h 76% 0in /  0.0mm
07:44 67.3 °F /  19.6 °C 59.7 °F /  15.4 °C 29.9in /  1013.6hPa Sur 4.3mph /  6.9km/h 8.5mph /  13.7km/h 77% 0in /  0.0mm
07:49 66.9 °F /  19.4 °C 59.5 °F /  15.3 °C 29.9in /  1013.8hPa Sur 4.4mph /  7.1km/h 9.2mph /  14.8km/h 77% 0in /  0.0mm
07:54 66.7 °F /  19.3 °C 59.4 °F /  15.2 °C 29.9in /  1013.8hPa Sur 5.2mph /  8.4km/h 9mph /  14.5km/h 77% 0in /  0.0mm
07:59 66.7 °F /  19.3 °C 59.4 °F /  15.2 °C 29.9in /  1013.8hPa Sur 4.7mph /  7.6km/h 7mph /  11.3km/h 77% 0in /  0.0mm
08:04 66.7 °F /  19.3 °C 59 °F /  15 °C 29.9in /  1013.9hPa ESE 2.9mph /  4.7km/h 4.6mph /  7.4km/h 76.1% 0in /  0.0mm
08:09 66.6 °F /  19.2 °C 58.8 °F /  14.9 °C 29.9in /  1013.9hPa ESE 2.9mph /  4.7km/h 5.8mph /  9.3km/h 76% 0in /  0.0mm
08:14 66.2 °F /  19 °C 58.5 °F /  14.7 °C 29.9in /  1013.9hPa SSE 3.1mph /  5km/h 6mph /  9.7km/h 76% 0in /  0.0mm
08:19 66 °F /  18.9 °C 58.3 °F /  14.6 °C 29.9in /  1014.0hPa SSE 3.2mph /  5.1km/h 6mph /  9.7km/h 76% 0in /  0.0mm
08:24 66 °F /  18.9 °C 57.7 °F /  14.3 °C 29.9in /  1014.0hPa SSO 3.6mph /  5.8km/h 6.2mph /  10km/h 74.6% 0in /  0.0mm
08:29 66.4 °F /  19.1 °C 57.6 °F /  14.2 °C 29.9in /  1014.0hPa SSO 3.7mph /  6km/h 6.2mph /  10km/h 72.9% 0in /  0.0mm
08:34 66.7 °F /  19.3 °C 57 °F /  13.9 °C 30in /  1014.2hPa SSO 4.3mph /  6.9km/h 6.9mph /  11.1km/h 71% 0in /  0.0mm
08:39 67.3 °F /  19.6 °C 56.8 °F /  13.8 °C 30in /  1014.2hPa SO 4.3mph /  6.9km/h 7mph /  11.3km/h 68.9% 0in /  0.0mm
08:44 67.8 °F /  19.9 °C 56.5 °F /  13.6 °C 30in /  1014.2hPa OSO 4.3mph /  6.9km/h 7mph /  11.3km/h 66.7% 0in /  0.0mm
08:49 68.4 °F /  20.2 °C 55.9 °F /  13.3 °C 30in /  1014.2hPa OSO 4.2mph /  6.8km/h 6mph /  9.7km/h 64.5% 0in /  0.0mm
08:54 68.9 °F /  20.5 °C 55 °F /  12.8 °C 30in /  1014.2hPa OSO 3.6mph /  5.8km/h 6mph /  9.7km/h 61.2% 0in /  0.0mm
08:59 69.4 °F /  20.8 °C 54.1 °F /  12.3 °C 30in /  1014.2hPa Oeste 3.4mph /  5.5km/h 6mph /  9.7km/h 58.2% 0in /  0.0mm
09:04 70.2 °F /  21.2 °C 54.9 °F /  12.7 °C 30in /  1014.4hPa Sur 2.9mph /  4.7km/h 5.2mph /  8.4km/h 58.6% 0in /  0.0mm
09:09 70.5 °F /  21.4 °C 57 °F /  13.9 °C 30in /  1014.4hPa SSE 2.9mph /  4.7km/h 5.9mph /  9.5km/h 62.6% 0in /  0.0mm
09:14 70.2 °F /  21.2 °C 55.8 °F /  13.2 °C 30in /  1014.4hPa Sur 3.1mph /  5km/h 6.9mph /  11.1km/h 60.4% 0in /  0.0mm
09:19 70.2 °F /  21.2 °C 55.4 °F /  13 °C 30in /  1014.5hPa Sur 3.4mph /  5.4km/h 7.4mph /  11.9km/h 59.6% 0in /  0.0mm
09:24 70.5 °F /  21.4 °C 55 °F /  12.8 °C 30in /  1014.5hPa Sur 4.7mph /  7.6km/h 7mph /  11.3km/h 58.3% 0in /  0.0mm
09:29 70.9 °F /  21.6 °C 54.7 °F /  12.6 °C 30in /  1014.5hPa SSO 4.7mph /  7.5km/h 7mph /  11.3km/h 56.7% 0in /  0.0mm
09:34 71.4 °F /  21.9 °C 54.1 °F /  12.3 °C 30in /  1014.6hPa Sur 4.3mph /  6.9km/h 7mph /  11.3km/h 54.6% 0in /  0.0mm
09:39 72 °F /  22.2 °C 54 °F /  12.2 °C 30in /  1014.6hPa Sur 4.3mph /  7km/h 8.1mph /  13km/h 53.3% 0in /  0.0mm
09:44 72.3 °F /  22.4 °C 53.8 °F /  12.1 °C 30in /  1014.6hPa Sur 4.7mph /  7.6km/h 8.7mph /  14km/h 52.1% 0in /  0.0mm
09:49 72.7 °F /  22.6 °C 53.2 °F /  11.8 °C 30in /  1014.6hPa SSO 4.8mph /  7.7km/h 9.2mph /  14.8km/h 50.6% 0in /  0.0mm
09:54 72.9 °F /  22.7 °C 52.9 °F /  11.6 °C 30in /  1014.5hPa SO 5.2mph /  8.4km/h 9mph /  14.5km/h 49.7% 0in /  0.0mm
09:59 73 °F /  22.8 °C 52.7 °F /  11.5 °C 30in /  1014.5hPa SO 5mph /  8.1km/h 8.5mph /  13.7km/h 49% 0in /  0.0mm
10:04 73.2 °F /  22.9 °C 52.9 °F /  11.6 °C 30in /  1014.7hPa SO 4.3mph /  6.9km/h 9mph /  14.5km/h 49.1% 0in /  0.0mm
10:09 73.4 °F /  23 °C 53.1 °F /  11.7 °C 30in /  1014.7hPa SO 4.5mph /  7.2km/h 9mph /  14.5km/h 49% 0in /  0.0mm
10:14 73.6 °F /  23.1 °C 53.4 °F /  11.9 °C 30in /  1014.7hPa SO 5.2mph /  8.4km/h 8.1mph /  13km/h 49.4% 0in /  0.0mm
10:19 73.9 °F /  23.3 °C 53.8 °F /  12.1 °C 30in /  1014.7hPa SO 5.1mph /  8.2km/h 8.1mph /  13km/h 49.3% 0in /  0.0mm
10:24 74.3 °F /  23.5 °C 53.4 °F /  11.9 °C 30in /  1014.7hPa SO 4.7mph /  7.6km/h 8mph /  12.9km/h 48.3% 0in /  0.0mm
10:29 75 °F /  23.9 °C 52 °F /  11.1 °C 30in /  1014.7hPa ONO 4.4mph /  7.1km/h 7.4mph /  11.9km/h 44.5% 0in /  0.0mm
10:34 76.1 °F /  24.5 °C 51.4 °F /  10.8 °C 30in /  1015.0hPa NO 3.1mph /  5km/h 7mph /  11.3km/h 42.1% 0in /  0.0mm
10:39 76.8 °F /  24.9 °C 51.1 °F /  10.6 °C 30in /  1015.0hPa Oeste 3.3mph /  5.3km/h 10.4mph /  16.7km/h 40.5% 0in /  0.0mm
10:44 77.5 °F /  25.3 °C 51.3 °F /  10.7 °C 30in /  1015.0hPa OSO 4.3mph /  6.9km/h 11.5mph /  18.5km/h 40% 0in /  0.0mm
10:49 78.1 °F /  25.6 °C 51.3 °F /  10.7 °C 30in /  1015.0hPa Oeste 4.7mph /  7.5km/h 12mph /  19.3km/h 39.3% 0in /  0.0mm
10:54 78.3 °F /  25.7 °C 50.9 °F /  10.5 °C 30in /  1014.9hPa Oeste 6.2mph /  10km/h 13.8mph /  22.2km/h 38.5% 0in /  0.0mm
10:59 78.6 °F /  25.9 °C 50.5 °F /  10.3 °C 30in /  1014.9hPa Oeste 6.5mph /  10.4km/h 15mph /  24.1km/h 37.5% 0in /  0.0mm
11:04 79 °F /  26.1 °C 50.2 °F /  10.1 °C 30in /  1015.1hPa Oeste 7.4mph /  11.9km/h 16.3mph /  26.2km/h 36.6% 0in /  0.0mm
11:09 79.2 °F /  26.2 °C 50 °F /  10 °C 30in /  1015.1hPa OSO 7.5mph /  12.1km/h 16mph /  25.7km/h 36% 0in /  0.0mm
11:14 79.3 °F /  26.3 °C 50.2 °F /  10.1 °C 30in /  1015.1hPa Oeste 8.1mph /  13km/h 13mph /  20.9km/h 36% 0in /  0.0mm
11:19 79.7 °F /  26.5 °C 50.4 °F /  10.2 °C 30in /  1015.1hPa OSO 7.8mph /  12.5km/h 12mph /  19.3km/h 36% 0in /  0.0mm
11:24 80.1 °F /  26.7 °C 50 °F /  10 °C 30in /  1015.1hPa Oeste 6.2mph /  10km/h 13.8mph /  22.2km/h 35.1% 0in /  0.0mm
11:29 80.2 °F /  26.8 °C 49.5 °F /  9.7 °C 30in /  1015.1hPa ONO 6.6mph /  10.6km/h 16.1mph /  25.9km/h 34.2% 0in /  0.0mm
11:34 80.4 °F /  26.9 °C 49.1 °F /  9.5 °C 30in /  1015.1hPa ONO 8.5mph /  13.7km/h 20.7mph /  33.3km/h 33.4% 0in /  0.0mm
11:39 80.4 °F /  26.9 °C 49.3 °F /  9.6 °C 30in /  1015.0hPa Oeste 9mph /  14.5km/h 21mph /  33.8km/h 33.8% 0in /  0.0mm
11:44 80.8 °F /  27.1 °C 48.9 °F /  9.4 °C 30in /  1015.0hPa Oeste 11.4mph /  18.3km/h 17.5mph /  28.2km/h 33.1% 0in /  0.0mm
11:49 81 °F /  27.2 °C 49.1 °F /  9.5 °C 30in /  1015.0hPa Oeste 10.9mph /  17.6km/h 17mph /  27.4km/h 32.9% 0in /  0.0mm
11:54 81.1 °F /  27.3 °C 49.1 °F /  9.5 °C 30in /  1014.8hPa Oeste 8.7mph /  14km/h 14mph /  22.5km/h 32.7% 0in /  0.0mm
11:59 81.3 °F /  27.4 °C 48.6 °F /  9.2 °C 30in /  1014.8hPa Oeste 8.7mph /  14km/h 13.8mph /  22.2km/h 32% 0in /  0.0mm
12:04 81.7 °F /  27.6 °C 48.9 °F /  9.4 °C 30in /  1014.8hPa Oeste 8.7mph /  14km/h 14mph /  22.5km/h 32% 0in /  0.0mm
12:09 82 °F /  27.8 °C 48.9 °F /  9.4 °C 30in /  1014.6hPa Oeste 8.3mph /  13.4km/h 14mph /  22.5km/h 31.7% 0in /  0.0mm
12:14 82.2 °F /  27.9 °C 48.6 °F /  9.2 °C 30in /  1014.6hPa Oeste 6.4mph /  10.3km/h 16.8mph /  27km/h 31% 0in /  0.0mm
12:19 82 °F /  27.8 °C 48.6 °F /  9.2 °C 30in /  1014.6hPa Oeste 6.7mph /  10.8km/h 17.3mph /  27.8km/h 31% 0in /  0.0mm
12:24 82 °F /  27.8 °C 48.6 °F /  9.2 °C 30in /  1014.6hPa Oeste 8.1mph /  13km/h 16.3mph /  26.2km/h 31.1% 0in /  0.0mm
12:29 82.4 °F /  28 °C 48.9 °F /  9.4 °C 30in /  1014.6hPa Oeste 8.1mph /  13.1km/h 16.1mph /  25.9km/h 31.2% 0in /  0.0mm
12:34 82.6 °F /  28.1 °C 48.7 °F /  9.3 °C 30in /  1014.6hPa Oeste 8.5mph /  13.7km/h 18.4mph /  29.6km/h 31% 0in /  0.0mm
12:39 82.6 °F /  28.1 °C 48.2 °F /  9 °C 30in /  1014.5hPa ONO 8.8mph /  14.1km/h 19mph /  30.6km/h 30.1% 0in /  0.0mm
12:44 82.8 °F /  28.2 °C 48.6 °F /  9.2 °C 30in /  1014.5hPa OSO 10mph /  16.1km/h 19mph /  30.6km/h 30.4% 0in /  0.0mm
12:49 83.3 °F /  28.5 °C 48.7 °F /  9.3 °C 30in /  1014.5hPa OSO 9.6mph /  15.4km/h 16mph /  25.7km/h 30.2% 0in /  0.0mm
12:54 83.5 °F /  28.6 °C 48.7 °F /  9.3 °C 30in /  1014.2hPa OSO 7.6mph /  12.2km/h 14mph /  22.5km/h 30% 0in /  0.0mm
12:59 83.8 °F /  28.8 °C 48.7 °F /  9.3 °C 30in /  1014.2hPa SO 7.3mph /  11.8km/h 14mph /  22.5km/h 29.6% 0in /  0.0mm
13:04 84 °F /  28.9 °C 48.4 °F /  9.1 °C 30in /  1014.2hPa SO 6.4mph /  10.3km/h 12.7mph /  20.4km/h 29% 0in /  0.0mm
13:09 84.4 °F /  29.1 °C 48.6 °F /  9.2 °C 29.9in /  1014.1hPa SO 6.6mph /  10.6km/h 13mph /  20.9km/h 29% 0in /  0.0mm
13:14 84.6 °F /  29.2 °C 48.6 °F /  9.2 °C 29.9in /  1014.1hPa SSO 7.4mph /  11.9km/h 13mph /  20.9km/h 28.9% 0in /  0.0mm
13:19 84.7 °F /  29.3 °C 48.7 °F /  9.3 °C 29.9in /  1014.1hPa OSO 7.3mph /  11.8km/h 11.5mph /  18.5km/h 28.7% 0in /  0.0mm
13:24 85.3 °F /  29.6 °C 48.7 °F /  9.3 °C 29.9in /  1013.8hPa OSO 6.9mph /  11.1km/h 12mph /  19.3km/h 28.2% 0in /  0.0mm
13:29 85.6 °F /  29.8 °C 48.6 °F /  9.2 °C 29.9in /  1013.8hPa Oeste 6.7mph /  10.8km/h 12mph /  19.3km/h 27.8% 0in /  0.0mm
13:34 85.8 °F /  29.9 °C 48.9 °F /  9.4 °C 29.9in /  1013.8hPa Oeste 5.9mph /  9.5km/h 11mph /  17.7km/h 27.9% 0in /  0.0mm
13:39 86.4 °F /  30.2 °C 48.4 °F /  9.1 °C 29.9in /  1013.5hPa OSO 5.8mph /  9.3km/h 12.7mph /  20.4km/h 27% 0in /  0.0mm
13:44 86.5 °F /  30.3 °C 48.2 °F /  9 °C 29.9in /  1013.5hPa ONO 5.2mph /  8.4km/h 13mph /  20.9km/h 26.6% 0in /  0.0mm
13:49 86.7 °F /  30.4 °C 47.8 °F /  8.8 °C 29.9in /  1013.5hPa ONO 5.6mph /  9km/h 16.1mph /  25.9km/h 26.1% 0in /  0.0mm
13:54 86.7 °F /  30.4 °C 47.7 °F /  8.7 °C 29.9in /  1013.3hPa ONO 7.6mph /  12.2km/h 16.1mph /  25.9km/h 26% 0in /  0.0mm
13:59 87.3 °F /  30.7 °C 47.8 °F /  8.8 °C 29.9in /  1013.3hPa ONO 7.6mph /  12.2km/h 17.5mph /  28.2km/h 25.7% 0in /  0.0mm
14:04 87.3 °F /  30.7 °C 47.5 °F /  8.6 °C 29.9in /  1013.3hPa ONO 7.6mph /  12.2km/h 17mph /  27.4km/h 25.3% 0in /  0.0mm
14:09 87.4 °F /  30.8 °C 47.8 °F /  8.8 °C 29.9in /  1013.1hPa ONO 7.7mph /  12.4km/h 15mph /  24.1km/h 25.5% 0in /  0.0mm
14:14 87.8 °F /  31 °C 48 °F /  8.9 °C 29.9in /  1013.1hPa ONO 8.1mph /  13km/h 15mph /  24.1km/h 25.4% 0in /  0.0mm
14:19 88 °F /  31.1 °C 47.7 °F /  8.7 °C 29.9in /  1013.1hPa Oeste 8mph /  12.8km/h 15mph /  24.1km/h 25% 0in /  0.0mm
14:24 88 °F /  31.1 °C 47.8 °F /  8.8 °C 29.9in /  1013.0hPa ONO 7.4mph /  11.9km/h 15mph /  24.1km/h 25% 0in /  0.0mm
14:29 88.3 °F /  31.3 °C 48 °F /  8.9 °C 29.9in /  1013.0hPa Oeste 7.6mph /  12.2km/h 16.1mph /  25.9km/h 25.1% 0in /  0.0mm
14:34 88.3 °F /  31.3 °C 48 °F /  8.9 °C 29.9in /  1013.0hPa ONO 8.5mph /  13.7km/h 16mph /  25.7km/h 25% 0in /  0.0mm
14:39 88.3 °F /  31.3 °C 48.2 °F /  9 °C 29.9in /  1012.8hPa NO 8.8mph /  14.1km/h 18.5mph /  29.8km/h 25.1% 0in /  0.0mm
14:44 88.5 °F /  31.4 °C 48.9 °F /  9.4 °C 29.9in /  1012.8hPa ONO 10.2mph /  16.4km/h 19mph /  30.6km/h 25.7% 0in /  0.0mm
14:49 88.5 °F /  31.4 °C 48.4 °F /  9.1 °C 29.9in /  1012.8hPa ONO 9.9mph /  16km/h 16mph /  25.7km/h 25.2% 0in /  0.0mm
14:54 88.7 °F /  31.5 °C 48.7 °F /  9.3 °C 29.9in /  1012.7hPa Oeste 8.7mph /  14km/h 15mph /  24.1km/h 25.3% 0in /  0.0mm
14:59 89.1 °F /  31.7 °C 48.7 °F /  9.3 °C 29.9in /  1012.7hPa Oeste 8.6mph /  13.8km/h 13.8mph /  22.2km/h 25% 0in /  0.0mm
15:04 89.2 °F /  31.8 °C 48.7 °F /  9.3 °C 29.9in /  1012.7hPa Oeste 8.1mph /  13km/h 15.2mph /  24.5km/h 25% 0in /  0.0mm
15:09 89.2 °F /  31.8 °C 48.9 °F /  9.4 °C 29.9in /  1012.4hPa ONO 8.1mph /  13km/h 16.1mph /  25.9km/h 25.1% 0in /  0.0mm
15:14 89.4 °F /  31.9 °C 51.1 °F /  10.6 °C 29.9in /  1012.4hPa NO 8.1mph /  13km/h 18.4mph /  29.6km/h 27.2% 0in /  0.0mm
15:19 88.7 °F /  31.5 °C 55.8 °F /  13.2 °C 29.9in /  1012.5hPa NNE 8.4mph /  13.6km/h 18.4mph /  29.6km/h 32.9% 0in /  0.0mm
15:24 87.6 °F /  30.9 °C 56.7 °F /  13.7 °C 29.9in /  1012.5hPa NNE 10.2mph /  16.4km/h 19.7mph /  31.7km/h 35% 0in /  0.0mm
15:29 86.9 °F /  30.5 °C 60.3 °F /  15.7 °C 29.9in /  1012.5hPa NNE 10.4mph /  16.8km/h 20mph /  32.2km/h 40.9% 0in /  0.0mm
15:34 86 °F /  30 °C 61.9 °F /  16.6 °C 29.9in /  1012.8hPa NE 11.8mph /  19km/h 21.9mph /  35.2km/h 44.7% 0in /  0.0mm
15:39 85.1 °F /  29.5 °C 62.8 °F /  17.1 °C 29.9in /  1012.8hPa NE 12mph /  19.3km/h 22mph /  35.4km/h 47.3% 0in /  0.0mm
15:44 84.4 °F /  29.1 °C 63.7 °F /  17.6 °C 29.9in /  1012.8hPa NE 13mph /  20.9km/h 22mph /  35.4km/h 50% 0in /  0.0mm
15:49 83.8 °F /  28.8 °C 63.7 °F /  17.6 °C 29.9in /  1013.1hPa NE 12.9mph /  20.8km/h 22mph /  35.4km/h 51% 0in /  0.0mm
15:54 83.1 °F /  28.4 °C 63.3 °F /  17.4 °C 29.9in /  1013.1hPa NE 12.5mph /  20.1km/h 21.3mph /  34.3km/h 51.4% 0in /  0.0mm
15:59 82.6 °F /  28.1 °C 63.7 °F /  17.6 °C 29.9in /  1013.1hPa NE 12.3mph /  19.8km/h 21mph /  33.8km/h 52.9% 0in /  0.0mm
16:04 82.2 °F /  27.9 °C 64 °F /  17.8 °C 29.9in /  1013.4hPa NE 11.4mph /  18.4km/h 23mph /  37km/h 54% 0in /  0.0mm
16:09 81.9 °F /  27.7 °C 64.2 °F /  17.9 °C 29.9in /  1013.4hPa NE 11.7mph /  18.8km/h 23mph /  37km/h 55.1% 0in /  0.0mm
16:14 81.5 °F /  27.5 °C 64.6 °F /  18.1 °C 29.9in /  1013.4hPa NE 13mph /  20.9km/h 22mph /  35.4km/h 56.6% 0in /  0.0mm
16:19 81.3 °F /  27.4 °C 65.1 °F /  18.4 °C 29.9in /  1013.4hPa NE 12.7mph /  20.5km/h 22mph /  35.4km/h 58% 0in /  0.0mm
16:24 81.1 °F /  27.3 °C 65.5 °F /  18.6 °C 29.9in /  1013.4hPa NE 11.4mph /  18.4km/h 20.7mph /  33.3km/h 58.8% 0in /  0.0mm
16:29 80.8 °F /  27.1 °C 65.5 °F /  18.6 °C 29.9in /  1013.4hPa NE 11.6mph /  18.6km/h 21mph /  33.8km/h 59.8% 0in /  0.0mm
16:34 80.2 °F /  26.8 °C 65.5 °F /  18.6 °C 29.9in /  1013.6hPa NE 12.3mph /  19.8km/h 21.9mph /  35.2km/h 60.6% 0in /  0.0mm
16:39 79.9 °F /  26.6 °C 65.7 °F /  18.7 °C 29.9in /  1013.6hPa NE 12.1mph /  19.5km/h 22mph /  35.4km/h 61.7% 0in /  0.0mm
16:44 79.7 °F /  26.5 °C 65.8 °F /  18.8 °C 29.9in /  1013.6hPa NE 11.2mph /  18km/h 17mph /  27.4km/h 62.7% 0in /  0.0mm
16:49 79.7 °F /  26.5 °C 65.8 °F /  18.8 °C 29.9in /  1013.6hPa NE 10.7mph /  17.3km/h 16.3mph /  26.2km/h 63% 0in /  0.0mm
16:54 79.5 °F /  26.4 °C 65.8 °F /  18.8 °C 29.9in /  1013.6hPa NE 8.5mph /  13.7km/h 18.5mph /  29.8km/h 63% 0in /  0.0mm
16:59 79.3 °F /  26.3 °C 65.7 °F /  18.7 °C 29.9in /  1013.6hPa NE 8.9mph /  14.4km/h 19mph /  30.6km/h 63.2% 0in /  0.0mm
17:04 79.2 °F /  26.2 °C 65.8 °F /  18.8 °C 29.9in /  1013.7hPa NE 10.7mph /  17.2km/h 19mph /  30.6km/h 64% 0in /  0.0mm
17:09 79.2 °F /  26.2 °C 65.8 °F /  18.8 °C 29.9in /  1013.7hPa NE 10.6mph /  17.1km/h 18.4mph /  29.6km/h 64% 0in /  0.0mm
17:14 79.2 °F /  26.2 °C 65.7 °F /  18.7 °C 29.9in /  1013.7hPa NE 10.2mph /  16.4km/h 18.4mph /  29.6km/h 63.4% 0in /  0.0mm
17:19 78.8 °F /  26 °C 65.5 °F /  18.6 °C 29.9in /  1013.8hPa NE 10.4mph /  16.7km/h 19mph /  30.6km/h 63.7% 0in /  0.0mm
17:24 78.4 °F /  25.8 °C 65.3 °F /  18.5 °C 29.9in /  1013.8hPa NE 11.2mph /  18km/h 19mph /  30.6km/h 64% 0in /  0.0mm
17:29 78.6 °F /  25.9 °C 65.3 °F /  18.5 °C 29.9in /  1013.8hPa NE 11.2mph /  18km/h 17.3mph /  27.8km/h 64% 0in /  0.0mm
17:34 78.3 °F /  25.7 °C 65.5 °F /  18.6 °C 29.9in /  1013.8hPa NE 11.2mph /  18km/h 17mph /  27.4km/h 65% 0in /  0.0mm
17:39 78.3 °F /  25.7 °C 65.7 °F /  18.7 °C 29.9in /  1013.8hPa NE 10.7mph /  17.2km/h 16mph /  25.7km/h 65.2% 0in /  0.0mm
17:44 78.3 °F /  25.7 °C 65.5 °F /  18.6 °C 29.9in /  1013.8hPa NE 8.1mph /  13.1km/h 15mph /  24.1km/h 65.1% 0in /  0.0mm
17:49 78.3 °F /  25.7 °C 65.5 °F /  18.6 °C 29.9in /  1013.9hPa ESE 8mph /  12.9km/h 13.8mph /  22.2km/h 64.9% 0in /  0.0mm
17:54 78.4 °F /  25.8 °C 65.3 °F /  18.5 °C 29.9in /  1013.9hPa ESE 7.4mph /  11.9km/h 14mph /  22.5km/h 64% 0in /  0.0mm
17:59 78.4 °F /  25.8 °C 65.1 °F /  18.4 °C 29.9in /  1013.9hPa Este 7.4mph /  11.9km/h 13mph /  20.9km/h 63.9% 0in /  0.0mm
18:04 78.3 °F /  25.7 °C 65.3 °F /  18.5 °C 30in /  1014.2hPa Este 7.4mph /  11.9km/h 13.8mph /  22.2km/h 64.4% 0in /  0.0mm
18:09 78.1 °F /  25.6 °C 65.3 °F /  18.5 °C 30in /  1014.2hPa Este 7.5mph /  12km/h 14mph /  22.5km/h 65% 0in /  0.0mm
18:14 77.7 °F /  25.4 °C 64.9 °F /  18.3 °C 30in /  1014.2hPa ESE 7.6mph /  12.2km/h 14mph /  22.5km/h 65% 0in /  0.0mm
18:19 77.5 °F /  25.3 °C 64.9 °F /  18.3 °C 30in /  1014.4hPa ESE 7.8mph /  12.5km/h 15.9mph /  25.6km/h 65.4% 0in /  0.0mm
18:24 77.2 °F /  25.1 °C 64.9 °F /  18.3 °C 30in /  1014.4hPa ESE 8.7mph /  14km/h 16.1mph /  25.9km/h 65.8% 0in /  0.0mm
18:29 77 °F /  25 °C 64.8 °F /  18.2 °C 30in /  1014.4hPa Este 8.7mph /  14km/h 15.2mph /  24.5km/h 66% 0in /  0.0mm
18:34 76.8 °F /  24.9 °C 64.6 °F /  18.1 °C 30in /  1014.7hPa Este 8.7mph /  14km/h 15mph /  24.1km/h 66% 0in /  0.0mm
18:39 76.8 °F /  24.9 °C 64.8 °F /  18.2 °C 30in /  1014.7hPa ESE 8.3mph /  13.4km/h 12mph /  19.3km/h 66.7% 0in /  0.0mm
18:44 76.6 °F /  24.8 °C 64.9 °F /  18.3 °C 30in /  1014.7hPa Este 6.4mph /  10.3km/h 11mph /  17.7km/h 67% 0in /  0.0mm
18:49 76.8 °F /  24.9 °C 64.9 °F /  18.3 °C 30in /  1014.7hPa ENE 6.3mph /  10.1km/h 10.4mph /  16.7km/h 67% 0in /  0.0mm
18:54 76.8 °F /  24.9 °C 64.9 °F /  18.3 °C 30in /  1014.7hPa ENE 5.4mph /  8.7km/h 10mph /  16.1km/h 67% 0in /  0.0mm
18:59 76.8 °F /  24.9 °C 64.6 °F /  18.1 °C 30in /  1014.7hPa Este 5.3mph /  8.5km/h 10.2mph /  16.4km/h 66.3% 0in /  0.0mm
19:04 76.6 °F /  24.8 °C 64.9 °F /  18.3 °C 30in /  1014.7hPa ENE 4.7mph /  7.6km/h 10.4mph /  16.7km/h 67% 0in /  0.0mm
19:09 76.6 °F /  24.8 °C 64.8 °F /  18.2 °C 30in /  1014.7hPa ENE 4.8mph /  7.8km/h 10mph /  16.1km/h 67% 0in /  0.0mm
19:14 76.5 °F /  24.7 °C 64.9 °F /  18.3 °C 30in /  1014.7hPa ENE 5.4mph /  8.7km/h 9mph /  14.5km/h 67.8% 0in /  0.0mm
19:19 76.5 °F /  24.7 °C 65.1 °F /  18.4 °C 30in /  1014.9hPa ENE 5.3mph /  8.5km/h 9.7mph /  15.6km/h 68% 0in /  0.0mm
19:24 76.3 °F /  24.6 °C 64.9 °F /  18.3 °C 30in /  1014.9hPa ENE 4.7mph /  7.6km/h 10.7mph /  17.2km/h 68% 0in /  0.0mm
19:29 75.9 °F /  24.4 °C 64.9 °F /  18.3 °C 30in /  1014.9hPa ENE 4.8mph /  7.8km/h 11mph /  17.7km/h 68.8% 0in /  0.0mm
19:34 75.7 °F /  24.3 °C 64.9 °F /  18.3 °C 30in /  1014.9hPa ENE 5.4mph /  8.7km/h 9.2mph /  14.8km/h 69% 0in /  0.0mm
19:39 75.6 °F /  24.2 °C 64.8 °F /  18.2 °C 30in /  1014.9hPa NE 5.3mph /  8.6km/h 9.2mph /  14.8km/h 69% 0in /  0.0mm
19:44 75.4 °F /  24.1 °C 64.6 °F /  18.1 °C 30in /  1014.9hPa ENE 5.2mph /  8.4km/h 9.2mph /  14.8km/h 69.4% 0in /  0.0mm
19:49 75 °F /  23.9 °C 64.6 °F /  18.1 °C 30in /  1015.1hPa ENE 5.1mph /  8.2km/h 9mph /  14.5km/h 70% 0in /  0.0mm
19:54 75 °F /  23.9 °C 64.6 °F /  18.1 °C 30in /  1015.1hPa NE 4.7mph /  7.6km/h 8mph /  12.9km/h 70% 0in /  0.0mm
19:59 74.8 °F /  23.8 °C 64.4 °F /  18 °C 30in /  1015.1hPa NE 4.8mph /  7.7km/h 9.2mph /  14.8km/h 70.1% 0in /  0.0mm
20:04 74.7 °F /  23.7 °C 64.6 °F /  18.1 °C 30in /  1015.2hPa NE 5.2mph /  8.4km/h 12.3mph /  19.8km/h 71% 0in /  0.0mm
20:09 74.5 °F /  23.6 °C 64.6 °F /  18.1 °C 30in /  1015.2hPa NE 5.3mph /  8.6km/h 13mph /  20.9km/h 71% 0in /  0.0mm
20:14 74.1 °F /  23.4 °C 64.6 °F /  18.1 °C 30in /  1015.2hPa NE 6.2mph /  10km/h 11mph /  17.7km/h 71.9% 0in /  0.0mm
20:19 73.9 °F /  23.3 °C 64.4 °F /  18 °C 30in /  1015.4hPa NE 6.3mph /  10.2km/h 13.8mph /  22.2km/h 72% 0in /  0.0mm
20:24 73.8 °F /  23.2 °C 64.2 °F /  17.9 °C 30in /  1015.4hPa NE 6.9mph /  11.1km/h 14mph /  22.5km/h 72% 0in /  0.0mm
20:29 73.8 °F /  23.2 °C 64.2 °F /  17.9 °C 30in /  1015.4hPa NE 7.1mph /  11.4km/h 14mph /  22.5km/h 72.4% 0in /  0.0mm
20:34 73.6 °F /  23.1 °C 64.2 °F /  17.9 °C 30in /  1015.5hPa NE 8.1mph /  13km/h 13mph /  20.9km/h 72.3% 0in /  0.0mm
20:39 73.6 °F /  23.1 °C 64.4 °F /  18 °C 30in /  1015.5hPa NE 8.1mph /  13km/h 12mph /  19.3km/h 73% 0in /  0.0mm
20:44 73.6 °F /  23.1 °C 64.4 °F /  18 °C 30in /  1015.5hPa NE 8.1mph /  13km/h 13.7mph /  22km/h 73% 0in /  0.0mm
20:49 73.4 °F /  23 °C 64.2 °F /  17.9 °C 30in /  1015.6hPa NE 8.1mph /  13km/h 14mph /  22.5km/h 73% 0in /  0.0mm
20:54 73.4 °F /  23 °C 64.2 °F /  17.9 °C 30in /  1015.6hPa NE 8.1mph /  13km/h 14mph /  22.5km/h 73% 0in /  0.0mm
20:59 73.4 °F /  23 °C 64.2 °F /  17.9 °C 30in /  1015.6hPa NE 7.7mph /  12.4km/h 12mph /  19.3km/h 73% 0in /  0.0mm
21:04 73.4 °F /  23 °C 64.2 °F /  17.9 °C 30in /  1015.8hPa NE 5.9mph /  9.5km/h 10.4mph /  16.7km/h 73% 0in /  0.0mm
21:09 73.2 °F /  22.9 °C 64 °F /  17.8 °C 30in /  1015.8hPa NE 5.9mph /  9.5km/h 11.5mph /  18.5km/h 73% 0in /  0.0mm
21:14 73.2 °F /  22.9 °C 64 °F /  17.8 °C 30in /  1015.8hPa NE 5.9mph /  9.5km/h 12mph /  19.3km/h 73% 0in /  0.0mm
21:19 73 °F /  22.8 °C 64 °F /  17.8 °C 30in /  1016.0hPa NE 5.8mph /  9.4km/h 10.4mph /  16.7km/h 73.4% 0in /  0.0mm
21:24 73 °F /  22.8 °C 64.2 °F /  17.9 °C 30in /  1016.0hPa NE 5.4mph /  8.7km/h 10mph /  16.1km/h 74% 0in /  0.0mm
21:29 73 °F /  22.8 °C 64.2 °F /  17.9 °C 30in /  1016.0hPa NE 5.5mph /  8.9km/h 10.7mph /  17.2km/h 74% 0in /  0.0mm
21:34 73 °F /  22.8 °C 64.2 °F /  17.9 °C 30in /  1016.1hPa NE 6.2mph /  10km/h 11mph /  17.7km/h 74% 0in /  0.0mm
21:39 73 °F /  22.8 °C 64.2 °F /  17.9 °C 30in /  1016.1hPa NE 6.2mph /  10km/h 9.7mph /  15.6km/h 74% 0in /  0.0mm
21:44 73 °F /  22.8 °C 64.2 °F /  17.9 °C 30in /  1016.1hPa NE 6.2mph /  10km/h 10mph /  16.1km/h 74% 0in /  0.0mm
21:49 73 °F /  22.8 °C 64.2 °F /  17.9 °C 30in /  1016.2hPa NE 6mph /  9.7km/h 8.1mph /  13km/h 74% 0in /  0.0mm
21:54 73 °F /  22.8 °C 64.2 °F /  17.9 °C 30in /  1016.2hPa NE 5.2mph /  8.4km/h 9.2mph /  14.8km/h 74% 0in /  0.0mm
21:59 73 °F /  22.8 °C 64.2 °F /  17.9 °C 30in /  1016.2hPa NE 5.3mph /  8.6km/h 9.2mph /  14.8km/h 74% 0in /  0.0mm
22:04 73 °F /  22.8 °C 64.2 °F /  17.9 °C 30in /  1016.3hPa NNE 5.9mph /  9.5km/h 9mph /  14.5km/h 74% 0in /  0.0mm
22:09 72.9 °F /  22.7 °C 64.2 °F /  17.9 °C 30in /  1016.3hPa NNE 5.6mph /  9km/h 8.1mph /  13km/h 74% 0in /  0.0mm
22:14 72.9 °F /  22.7 °C 64 °F /  17.8 °C 30in /  1016.3hPa NE 4.3mph /  6.9km/h 8.1mph /  13km/h 74% 0in /  0.0mm
22:19 72.9 °F /  22.7 °C 64 °F /  17.8 °C 30in /  1016.5hPa NE 4.5mph /  7.2km/h 9.2mph /  14.8km/h 74% 0in /  0.0mm
22:24 72.9 °F /  22.7 °C 64 °F /  17.8 °C 30in /  1016.5hPa NE 5.2mph /  8.4km/h 9mph /  14.5km/h 74% 0in /  0.0mm
22:29 72.9 °F /  22.7 °C 64 °F /  17.8 °C 30in /  1016.5hPa NE 5mph /  8.1km/h 8.1mph /  13km/h 74% 0in /  0.0mm
22:34 72.7 °F /  22.6 °C 63.9 °F /  17.7 °C 30in /  1016.7hPa NE 4.3mph /  6.9km/h 9.2mph /  14.8km/h 74% 0in /  0.0mm
22:39 72.7 °F /  22.6 °C 63.9 °F /  17.7 °C 30in /  1016.7hPa NE 4.5mph /  7.2km/h 9.2mph /  14.8km/h 74% 0in /  0.0mm
22:44 72.7 °F /  22.6 °C 63.9 °F /  17.7 °C 30in /  1016.7hPa NE 5.4mph /  8.7km/h 9mph /  14.5km/h 74% 0in /  0.0mm
22:49 72.7 °F /  22.6 °C 63.9 °F /  17.7 °C 30in /  1016.7hPa NE 5.2mph /  8.4km/h 7.6mph /  12.2km/h 74% 0in /  0.0mm
22:54 72.5 °F /  22.5 °C 63.7 °F /  17.6 °C 30in /  1016.7hPa NE 4.3mph /  6.9km/h 8.1mph /  13km/h 74% 0in /  0.0mm
22:59 72.3 °F /  22.4 °C 63.9 °F /  17.7 °C 30in /  1016.7hPa NE 4.4mph /  7.1km/h 8mph /  12.9km/h 74.7% 0in /  0.0mm
23:04 72.3 °F /  22.4 °C 63.9 °F /  17.7 °C 30in /  1016.8hPa NE 4.7mph /  7.6km/h 8.5mph /  13.7km/h 75% 0in /  0.0mm
23:09 72.1 °F /  22.3 °C 63.9 °F /  17.7 °C 30in /  1016.8hPa NE 4.8mph /  7.7km/h 9mph /  14.5km/h 75% 0in /  0.0mm
23:14 72.1 °F /  22.3 °C 63.9 °F /  17.7 °C 30in /  1016.8hPa NE 5.2mph /  8.4km/h 8.5mph /  13.7km/h 75% 0in /  0.0mm
23:19 72 °F /  22.2 °C 63.7 °F /  17.6 °C 30in /  1016.9hPa NE 5.2mph /  8.4km/h 9.7mph /  15.6km/h 75% 0in /  0.0mm
23:24 72 °F /  22.2 °C 63.7 °F /  17.6 °C 30in /  1016.9hPa NE 5.4mph /  8.7km/h 10mph /  16.1km/h 75.2% 0in /  0.0mm
23:29 71.8 °F /  22.1 °C 63.9 °F /  17.7 °C 30in /  1016.9hPa NE 5.3mph /  8.5km/h 7.4mph /  11.9km/h 75.9% 0in /  0.0mm
23:34 71.8 °F /  22.1 °C 63.7 °F /  17.6 °C 30in /  1016.9hPa NE 4.7mph /  7.6km/h 7mph /  11.3km/h 76% 0in /  0.0mm
23:39 71.4 °F /  21.9 °C 63.5 °F /  17.5 °C 30in /  1016.9hPa NE 4.7mph /  7.6km/h 7.4mph /  11.9km/h 76% 0in /  0.0mm
23:44 71.4 °F /  21.9 °C 63.5 °F /  17.5 °C 30in /  1016.9hPa NE 4.7mph /  7.6km/h 9.2mph /  14.8km/h 76% 0in /  0.0mm
23:49 71.2 °F /  21.8 °C 63.5 °F /  17.5 °C 30in /  1017.1hPa NE 4.8mph /  7.8km/h 10.4mph /  16.7km/h 76.5% 0in /  0.0mm
23:54 71.1 °F /  21.7 °C 63.5 °F /  17.5 °C 30in /  1017.1hPa NE 5.4mph /  8.7km/h 10.4mph /  16.7km/h 77% 0in /  0.0mm
23:59 71.1 °F /  21.7 °C 63.5 °F /  17.5 °C 30in /  1017.1hPa NE 5.3mph /  8.6km/h 10mph /  16.1km/h 77% 0in /  0.0mm
Murcia-Puente Tocinos, España
Compliments of Weather Underground - 3 mb

La estación de MeteoMurcia.com, publica sus datos en los siguientes proyectos:

Weather Underground PWS IMURCIAP2 Meteoclimatic www.awekas.at

W3Counter
Web Analytics